• Join FlightAware (Why Join?)
  • Login
  • US Flag 
01:00AM EDT


 

Airport Tracker/Info


-or-


 

Live Flight TrackerFlight Track Log ✈ UAL3746 ✈ 29-Apr-2013 ✈ KMHT - KORD

Flight Track Log - Related Links

Times and Time Zones

All times are in EDT time to prevent confusion due to time zone crossing. See the UAL3746 flight status page for this flight to view local times or setup timezone preferences in your user account.

Time Position Orientation Groundspeed Altitude Reporting Facility
EDT Latitude Longitude Course Direction KTS MPH feet Rate Location/Type
05:29PM 42.8833 -71.4667 228° Southwest 194 223 3,500  Level KA90
05:30PM 42.9181 -71.5556 298° West 204 235 6,100 2,520 Climbing Boston Center
05:31PM 42.9500 -71.9861 270° West  Level FlightAware Approximate
05:31PM 42.9625 -71.6372 307° West 263 303 8,900  Level Boston Center
05:32PM 42.9501 -72.1255 270° West  Level FlightAware Approximate
05:32PM 42.9861 -71.7419 287° West 281 323 11,500  Level Boston Center
05:33PM 42.9523 -72.2648 274° West  Level FlightAware Approximate
05:33PM 42.9908 -71.8553 273° West 288 331 13,500  Level Boston Center
05:34PM 42.9997 -71.9831 275° West 319 367 15,500 1,800 Climbing Boston Center
05:35PM 43.0064 -72.1164 274° West 351 404 17,100 1,380 Climbing Boston Center
05:36PM 43.0150 -72.2583 275° West 376 433 18,600 1,500 Climbing Boston Center
05:37PM 43.0297 -72.4144 277° West 382 440 20,400 1,800 Climbing Boston Center
05:38PM 43.0381 -72.5650 274° West 390 449 22,200 1,800 Climbing Boston Center
05:39PM 43.0378 -72.7128 270° West 397 457 24,000 1,620 Climbing Boston Center
05:40PM 43.0436 -72.8606 273° West 397 457 25,500 1,500 Climbing Boston Center
05:41PM 43.0553 -73.0256 276° West 397 457 27,100 1,440 Climbing Boston Center
05:42PM 43.0628 -73.1761 274° West 402 463 28,400 1,200 Climbing Boston Center
05:43PM 43.0700 -73.3269 274° West 402 463 29,500 960 Climbing Boston Center
05:44PM 43.0731 -73.4747 272° West 402 463 30,400 840 Climbing Boston Center
05:45PM 43.0781 -73.5969 273° West 402 463 31,200 960 Climbing Boston Center
05:46PM 43.0844 -73.7792 273° West 402 463 32,400 1,080 Climbing Boston Center
05:47PM 43.1117 -73.9275 284° West 408 470 33,400 780 Climbing Boston Center
05:48PM 43.1411 -74.0761 285° West 408 470 34,000 660 Climbing Boston Center
05:49PM 43.1678 -74.2306 283° West 408 470 34,800 600 Climbing Boston Center
05:50PM 43.1944 -74.3881 283° West 413 475 35,200 540 Climbing Boston Center
05:51PM 43.2125 -74.5397 279° West 419 482 35,900 360 Climbing Boston Center
05:52PM 43.2136 -74.7022 271° West 419 482 36,000  Climbing Boston Center
05:53PM 43.2144 -74.8703 270° West 429 494 36,000  Level Boston Center
05:54PM 43.2128 -75.0383 269° West 439 505 36,000  Level Boston Center
05:55PM 43.2111 -75.2036 269° West 439 505 36,000  Level Boston Center
05:56PM 43.2128 -75.3803 271° West 445 512 36,000  Level Boston Center
05:58PM 43.2000 -75.6500 266° West 440 506 36,000  Level Toronto Center
05:59PM 43.2000 -75.8333 270° West 440 506 36,000  Level Toronto Center
06:00PM 43.2075 -75.9511 275° West 441 507 36,000  Level Cleveland Center
06:01PM 43.2078 -76.1164 270° West 441 507 36,000  Level Cleveland Center
06:02PM 43.2058 -76.2847 269° West 441 507 36,000  Level Cleveland Center
06:03PM 43.2036 -76.4531 269° West 441 507 36,000 -60 Level Cleveland Center
06:04PM 43.1989 -76.6186 268° West 441 507 35,900  Descending Cleveland Center
06:05PM 43.1964 -76.7897 269° West 441 507 36,000  Climbing Cleveland Center
06:06PM 43.1933 -76.9581 269° West 441 507 36,000  Level Cleveland Center
06:07PM 43.1903 -77.1261 269° West 441 507 36,000  Level Cleveland Center
06:08PM 43.1869 -77.2972 269° West 441 507 36,000  Level Cleveland Center
06:09PM 43.1831 -77.4683 268° West 441 507 36,000  Level Cleveland Center
06:10PM 43.1794 -77.6394 268° West 441 507 36,000  Level Cleveland Center
06:11PM 43.1753 -77.8075 268° West 441 507 36,000  Level Cleveland Center
06:12PM 43.1708 -77.9786 268° West 446 513 36,000  Level Cleveland Center
06:13PM 43.1661 -78.1467 268° West 446 513 36,000  Level Cleveland Center
06:14PM 43.1611 -78.3178 268° West 446 513 36,000  Level Cleveland Center
06:15PM 43.1539 -78.4858 267° West 446 513 36,000  Level Cleveland Center
06:16PM 43.1486 -78.6539 268° West 446 513 36,000  Level Cleveland Center
06:17PM 43.1428 -78.8192 267° West 441 507 36,000  Level Cleveland Center
06:17PM 43.1333 -78.8833 259° West 440 506 36,000  Level Toronto Center
06:18PM 43.1333 -79.0333 270° West 440 506 36,000  Level Toronto Center
06:19PM 43.1167 -79.2000 262° West 430 495 36,000  Level Toronto Center
06:20PM 43.1167 -79.3667 270° West 420 483 36,000  Level Toronto Center
06:21PM 43.1000 -79.5167 261° West 410 472 36,000  Level Toronto Center
06:22PM 43.1000 -79.6833 270° West 410 472 36,000  Level Toronto Center
06:23PM 43.1000 -79.8333 270° West 410 472 36,000  Level Toronto Center
06:24PM 43.0833 -79.9833 261° West 420 483 36,000  Level Toronto Center
06:25PM 43.0833 -80.1500 270° West 420 483 36,000  Level Toronto Center
06:26PM 43.0667 -80.3167 262° West 420 483 36,000  Level Toronto Center
06:27PM 43.0667 -80.4833 270° West 430 495 36,000  Level Toronto Center
06:28PM 43.0667 -80.6333 270° West 430 495 36,000  Level Toronto Center
06:29PM 43.0500 -80.8000 262° West 420 483 36,000  Level Toronto Center
06:30PM 43.0333 -80.9500 261° West 420 483 36,000  Level Toronto Center
06:31PM 43.0167 -81.1167 262° West 420 483 36,000  Level Toronto Center
06:32PM 43.0167 -81.2500 270° West 410 472 36,000  Level Toronto Center
06:33PM 43.0167 -81.4167 270° West 410 472 36,000  Level Toronto Center
06:34PM 43.0167 -81.5667 270° West 410 472 36,000  Level Toronto Center
06:35PM 43.0167 -81.7333 270° West 410 472 36,000  Level Toronto Center
06:36PM 43.0167 -81.8833 270° West 410 472 36,000  Level Toronto Center
06:37PM 43.0000 -82.0500 262° West 410 472 36,000  Level Toronto Center
06:38PM 43.0000 -82.2167 270° West 410 472 36,000  Level Toronto Center
06:39PM 43.0000 -82.3500 270° West 410 472 36,000  Level Toronto Center
06:40PM 43.0000 -82.5000 270° West 410 472 36,000  Level Toronto Center
06:41PM 42.9833 -82.6667 262° West 410 472 36,000  Level Toronto Center
06:42PM 43.0003 -82.7661 283° West 419 482 36,000  Level Cleveland Center
06:43PM 42.9950 -82.9222 267° West 419 482 36,000  Level Cleveland Center
06:44PM 42.9897 -83.0808 267° West 419 482 36,000  Level Cleveland Center
06:45PM 42.9842 -83.2367 267° West 419 482 36,000  Level Cleveland Center
06:46PM 42.9783 -83.3928 267° West 419 482 36,000  Level Cleveland Center
06:47PM 42.9722 -83.5514 267° West 419 482 36,000  Level Cleveland Center
06:48PM 42.9681 -83.7128 268° West 419 482 36,000  Level Cleveland Center
06:49PM 42.9553 -83.8683 264° West 419 482 36,000  Level Cleveland Center
06:50PM 42.9383 -84.0233 262° West 419 482 36,000  Level Cleveland Center
06:51PM 42.9231 -84.1786 262° West 424 488 36,000 -420 Level Cleveland Center
06:52PM 42.9075 -84.3392 263° West 424 488 35,200 -1,500 Descending Cleveland Center
06:52PM 42.9003 -84.4308 264° West 416 479 33,600 -1,920 Descending Chicago Center
06:53PM 42.8839 -84.5925 262° West 428 493 32,000 -780 Descending Chicago Center
06:54PM 42.8639 -84.7858 262° West 429 494 32,000  Level Chicago Center
06:55PM 42.8475 -84.9469 262° West 429 494 32,000  Level Chicago Center
06:56PM 42.8289 -85.1117 261° West 438 504 32,000  Level Chicago Center
06:57PM 42.8111 -85.2769 262° West 441 507 32,000 -120 Level Chicago Center
06:59PM 42.7928 -85.4403 261° West 438 504 31,800 -1,140 Descending Chicago Center
07:00PM 42.7681 -85.6036 258° West 438 504 29,700 -2,340 Descending Chicago Center
07:01PM 42.7342 -85.7928 256° West 428 493 26,900 -2,520 Descending Chicago Center
07:02PM 42.7067 -85.9425 256° West 409 471 24,600 -2,280 Descending Chicago Center
07:03PM 42.6803 -86.0892 256° West 400 460 22,200 -2,220 Descending Chicago Center
07:04PM 42.6536 -86.2283 255° West 384 442 20,100 -1,080 Descending Chicago Center
07:05PM 42.6292 -86.3589 256° West 361 415 20,000 -60 Descending Chicago Center
07:06PM 42.6031 -86.4922 255° West 364 419 20,000  Level Chicago Center
07:07PM 42.5783 -86.6228 256° West 359 413 20,000 -1,020 Level Chicago Center
07:08PM 42.5503 -86.7653 255° West 361 415 18,000 -2,160 Descending Chicago Center
07:09PM 42.5142 -86.8972 250° West 340 391 15,600 -2,400 Descending Chicago Center
07:10PM 42.4844 -87.0117 251° West 326 375 13,100 -2,520 Descending Chicago Center
07:11PM 42.4531 -87.1167 248° West 306 352 10,500 -1,680 Descending Chicago Center
07:12PM 42.4278 -87.2131 250° West 278 320 9,700 -780 Descending Chicago Center
07:13PM 42.4039 -87.3008 250° West 254 292 9,000 -540 Descending Chicago Center
07:14PM 42.3750 -87.3950 247° West 259 298 8,700 -600 Descending Chicago Center
07:15PM 42.3408 -87.5028 247° West 262 302 7,800 -780 Descending Chicago Center
07:16PM 42.2883 -87.5711 224° Southwest 264 304 7,100 -540 Descending Chicago Center
07:17PM 42.2344 -87.6353 221° Southwest 262 302 6,700 -780 Descending Chicago Center
07:18PM 42.1822 -87.6956 221° Southwest 251 289 5,500 -1,200 Descending Chicago Center
07:19PM 42.1367 -87.7442 218° Southwest 220 253 4,300 -1,260 Descending Chicago Center
07:20PM 42.1000 -87.7667 204° Southwest 205 236 3,600 -1,440 Descending Chicago TRACON